sensor_id;sensor_type;location;lat;lon;timestamp;pressure;altitude;pressure_sealevel;temperature;humidity
68871;BME280;55906;52.278;6.808;2023-03-13T00:00:56;100170.31;;;10.66;77.73
68871;BME280;55906;52.278;6.808;2023-03-13T00:03:23;100159.72;;;10.63;78.20
68871;BME280;55906;52.278;6.808;2023-03-13T00:05:54;100150.84;;;10.55;79.38
68871;BME280;55906;52.278;6.808;2023-03-13T00:08:21;100156.03;;;10.50;80.45
68871;BME280;55906;52.278;6.808;2023-03-13T00:10:47;100141.88;;;10.41;81.40
68871;BME280;55906;52.278;6.808;2023-03-13T00:13:15;100138.25;;;10.34;82.32
68871;BME280;55906;52.278;6.808;2023-03-13T00:15:42;100132.88;;;10.26;83.56
68871;BME280;55906;52.278;6.808;2023-03-13T00:18:09;100147.69;;;10.21;84.24
68871;BME280;55906;52.278;6.808;2023-03-13T00:20:35;100130.03;;;10.14;85.81
68871;BME280;55906;52.278;6.808;2023-03-13T00:23:02;100116.78;;;10.08;86.12
68871;BME280;55906;52.278;6.808;2023-03-13T00:25:28;100118.47;;;10.03;87.03
68871;BME280;55906;52.278;6.808;2023-03-13T00:27:55;100107.84;;;9.97;87.57
68871;BME280;55906;52.278;6.808;2023-03-13T00:30:23;100096.47;;;9.97;88.03
68871;BME280;55906;52.278;6.808;2023-03-13T00:32:50;100099.00;;;9.90;88.60
68871;BME280;55906;52.278;6.808;2023-03-13T00:35:17;100088.47;;;9.89;89.04
68871;BME280;55906;52.278;6.808;2023-03-13T00:37:43;100076.19;;;9.88;89.30
68871;BME280;55906;52.278;6.808;2023-03-13T00:40:11;100085.78;;;9.86;89.99
68871;BME280;55906;52.278;6.808;2023-03-13T00:42:37;100080.53;;;9.86;89.88
68871;BME280;55906;52.278;6.808;2023-03-13T00:45:05;100078.78;;;9.85;90.24
68871;BME280;55906;52.278;6.808;2023-03-13T00:47:33;100078.72;;;9.82;90.60
68871;BME280;55906;52.278;6.808;2023-03-13T00:49:59;100057.72;;;9.82;90.39
68871;BME280;55906;52.278;6.808;2023-03-13T00:52:26;100054.28;;;9.86;90.78
68871;BME280;55906;52.278;6.808;2023-03-13T00:54:53;100036.72;;;9.83;91.34
68871;BME280;55906;52.278;6.808;2023-03-13T00:57:20;100035.84;;;9.83;91.44
68871;BME280;55906;52.278;6.808;2023-03-13T00:59:46;100034.06;;;9.82;91.76
68871;BME280;55906;52.278;6.808;2023-03-13T01:02:13;100024.53;;;9.88;91.43
68871;BME280;55906;52.278;6.808;2023-03-13T01:04:41;100018.31;;;9.82;91.67
68871;BME280;55906;52.278;6.808;2023-03-13T01:07:07;100018.38;;;9.86;91.40
68871;BME280;55906;52.278;6.808;2023-03-13T01:09:34;100008.75;;;9.87;91.47
68871;BME280;55906;52.278;6.808;2023-03-13T01:12:01;100003.44;;;9.84;92.07
68871;BME280;55906;52.278;6.808;2023-03-13T01:14:27;99995.56;;;9.84;92.15
68871;BME280;55906;52.278;6.808;2023-03-13T01:16:54;99991.28;;;9.90;91.73
68871;BME280;55906;52.278;6.808;2023-03-13T01:19:20;99982.53;;;9.90;92.19
68871;BME280;55906;52.278;6.808;2023-03-13T01:21:48;99983.41;;;9.90;92.69
68871;BME280;55906;52.278;6.808;2023-03-13T01:24:15;99976.38;;;9.88;92.70
68871;BME280;55906;52.278;6.808;2023-03-13T01:26:43;99964.06;;;9.85;93.37
68871;BME280;55906;52.278;6.808;2023-03-13T01:29:10;99957.94;;;9.85;93.99
68871;BME280;55906;52.278;6.808;2023-03-13T01:31:36;99944.75;;;9.82;94.46
68871;BME280;55906;52.278;6.808;2023-03-13T01:34:04;99946.41;;;9.75;95.00
68871;BME280;55906;52.278;6.808;2023-03-13T01:36:31;99933.25;;;9.72;95.33
68871;BME280;55906;52.278;6.808;2023-03-13T01:39:00;99932.44;;;9.78;95.19
68871;BME280;55906;52.278;6.808;2023-03-13T01:41:27;99928.88;;;9.73;95.84
68871;BME280;55906;52.278;6.808;2023-03-13T01:43:54;99922.69;;;9.69;96.40
68871;BME280;55906;52.278;6.808;2023-03-13T01:46:22;99913.06;;;9.70;97.05
68871;BME280;55906;52.278;6.808;2023-03-13T01:48:54;99893.78;;;9.68;97.31
68871;BME280;55906;52.278;6.808;2023-03-13T01:51:25;99885.06;;;9.69;97.53
68871;BME280;55906;52.278;6.808;2023-03-13T01:53:56;99876.28;;;9.67;97.94
68871;BME280;55906;52.278;6.808;2023-03-13T01:56:30;99864.84;;;9.63;98.38
68871;BME280;55906;52.278;6.808;2023-03-13T01:58:59;99856.16;;;9.69;98.73
68871;BME280;55906;52.278;6.808;2023-03-13T02:01:26;99861.38;;;9.66;98.98
68871;BME280;55906;52.278;6.808;2023-03-13T02:03:53;99862.22;;;9.63;99.36
68871;BME280;55906;52.278;6.808;2023-03-13T02:06:22;99834.22;;;9.63;99.88
68871;BME280;55906;52.278;6.808;2023-03-13T02:08:52;99837.72;;;9.62;99.96
68871;BME280;55906;52.278;6.808;2023-03-13T02:11:40;99819.34;;;9.64;100.00
68871;BME280;55906;52.278;6.808;2023-03-13T02:14:10;99821.94;;;9.62;100.00
68871;BME280;55906;52.278;6.808;2023-03-13T02:16:38;99823.72;;;9.63;100.00
68871;BME280;55906;52.278;6.808;2023-03-13T02:19:16;99807.13;;;9.66;100.00
68871;BME280;55906;52.278;6.808;2023-03-13T02:21:48;99823.72;;;9.65;100.00
68871;BME280;55906;52.278;6.808;2023-03-13T02:24:24;99792.25;;;9.67;100.00
68871;BME280;55906;52.278;6.808;2023-03-13T02:26:54;99790.50;;;9.69;100.00
68871;BME280;55906;52.278;6.808;2023-03-13T02:29:20;99788.78;;;9.71;100.00
68871;BME280;55906;52.278;6.808;2023-03-13T02:31:47;99775.69;;;9.74;100.00
68871;BME280;55906;52.278;6.808;2023-03-13T02:34:17;99775.75;;;9.80;100.00
68871;BME280;55906;52.278;6.808;2023-03-13T02:36:46;99760.94;;;9.85;100.00
68871;BME280;55906;52.278;6.808;2023-03-13T02:39:16;99763.53;;;9.82;100.00
68871;BME280;55906;52.278;6.808;2023-03-13T02:41:45;99763.56;;;9.85;100.00
68871;BME280;55906;52.278;6.808;2023-03-13T02:44:13;99732.09;;;9.89;100.00
68871;BME280;55906;52.278;6.808;2023-03-13T02:46:44;99731.19;;;9.89;100.00
68871;BME280;55906;52.278;6.808;2023-03-13T02:49:25;99727.72;;;9.91;100.00
68871;BME280;55906;52.278;6.808;2023-03-13T02:51:53;99719.88;;;9.94;100.00
68871;BME280;55906;52.278;6.808;2023-03-13T02:54:23;99714.69;;;10.01;100.00
68871;BME280;55906;52.278;6.808;2023-03-13T02:56:53;99709.44;;;10.02;100.00
68871;BME280;55906;52.278;6.808;2023-03-13T02:59:23;99694.56;;;10.04;100.00
68871;BME280;55906;52.278;6.808;2023-03-13T03:01:49;99694.56;;;10.06;100.00
68871;BME280;55906;52.278;6.808;2023-03-13T03:04:17;99676.19;;;10.06;100.00
68871;BME280;55906;52.278;6.808;2023-03-13T03:06:45;99675.38;;;10.14;100.00
68871;BME280;55906;52.278;6.808;2023-03-13T03:09:12;99669.28;;;10.17;100.00
68871;BME280;55906;52.278;6.808;2023-03-13T03:11:38;99669.28;;;10.17;100.00
68871;BME280;55906;52.278;6.808;2023-03-13T03:14:05;99659.72;;;10.23;100.00
68871;BME280;55906;52.278;6.808;2023-03-13T03:16:33;99653.59;;;10.26;100.00
68871;BME280;55906;52.278;6.808;2023-03-13T03:19:00;99642.22;;;10.27;100.00
68871;BME280;55906;52.278;6.808;2023-03-13T03:21:27;99639.63;;;10.30;100.00
68871;BME280;55906;52.278;6.808;2023-03-13T03:23:53;99636.16;;;10.36;100.00
68871;BME280;55906;52.278;6.808;2023-03-13T03:26:20;99630.88;;;10.34;100.00
68871;BME280;55906;52.278;6.808;2023-03-13T03:28:46;99657.19;;;10.37;100.00
68871;BME280;55906;52.278;6.808;2023-03-13T03:31:14;99644.03;;;10.37;100.00
68871;BME280;55906;52.278;6.808;2023-03-13T03:33:43;99637.91;;;10.37;100.00
68871;BME280;55906;52.278;6.808;2023-03-13T03:36:12;99623.88;;;10.38;100.00
68871;BME280;55906;52.278;6.808;2023-03-13T03:38:39;99630.97;;;10.43;100.00
68871;BME280;55906;52.278;6.808;2023-03-13T03:41:06;99634.47;;;10.45;100.00
68871;BME280;55906;52.278;6.808;2023-03-13T03:43:33;99647.63;;;10.45;100.00
68871;BME280;55906;52.278;6.808;2023-03-13T03:46:00;99638.91;;;10.51;100.00
68871;BME280;55906;52.278;6.808;2023-03-13T03:48:26;99642.41;;;10.50;100.00
68871;BME280;55906;52.278;6.808;2023-03-13T03:50:55;99627.50;;;10.50;100.00
68871;BME280;55906;52.278;6.808;2023-03-13T03:53:21;99629.31;;;10.57;100.00
68871;BME280;55906;52.278;6.808;2023-03-13T03:55:48;99625.81;;;10.63;100.00
68871;BME280;55906;52.278;6.808;2023-03-13T03:58:15;99631.06;;;10.60;100.00
68871;BME280;55906;52.278;6.808;2023-03-13T04:00:42;99624.09;;;10.65;100.00
68871;BME280;55906;52.278;6.808;2023-03-13T04:03:09;99607.44;;;10.66;100.00
68871;BME280;55906;52.278;6.808;2023-03-13T04:05:36;99621.47;;;10.71;100.00
68871;BME280;55906;52.278;6.808;2023-03-13T04:08:04;99612.69;;;10.69;100.00
68871;BME280;55906;52.278;6.808;2023-03-13T04:10:31;99610.97;;;10.74;100.00
68871;BME280;55906;52.278;6.808;2023-03-13T04:12:58;99609.22;;;10.73;100.00
68871;BME280;55906;52.278;6.808;2023-03-13T04:15:24;99618.88;;;10.77;100.00
68871;BME280;55906;52.278;6.808;2023-03-13T04:17:51;99606.63;;;10.79;100.00
68871;BME280;55906;52.278;6.808;2023-03-13T04:20:18;99613.66;;;10.88;100.00
68871;BME280;55906;52.278;6.808;2023-03-13T04:22:44;99623.31;;;10.87;100.00
68871;BME280;55906;52.278;6.808;2023-03-13T04:25:12;99619.81;;;10.88;100.00
68871;BME280;55906;52.278;6.808;2023-03-13T04:27:39;99602.28;;;10.92;100.00
68871;BME280;55906;52.278;6.808;2023-03-13T04:30:07;99611.94;;;10.95;100.00
68871;BME280;55906;52.278;6.808;2023-03-13T04:32:34;99604.91;;;10.92;100.00
68871;BME280;55906;52.278;6.808;2023-03-13T04:35:00;99593.53;;;10.98;100.00
68871;BME280;55906;52.278;6.808;2023-03-13T04:37:27;99592.66;;;11.00;100.00
68871;BME280;55906;52.278;6.808;2023-03-13T04:39:53;99590.03;;;11.00;100.00
68871;BME280;55906;52.278;6.808;2023-03-13T04:42:21;99569.88;;;11.05;100.00
68871;BME280;55906;52.278;6.808;2023-03-13T04:44:48;99563.72;;;11.00;100.00
68871;BME280;55906;52.278;6.808;2023-03-13T04:47:15;99579.53;;;11.06;100.00
68871;BME280;55906;52.278;6.808;2023-03-13T04:49:41;99569.00;;;11.12;100.00
68871;BME280;55906;52.278;6.808;2023-03-13T04:52:08;99587.44;;;11.12;100.00
68871;BME280;55906;52.278;6.808;2023-03-13T04:54:34;99561.13;;;11.15;100.00
68871;BME280;55906;52.278;6.808;2023-03-13T04:57:01;99558.47;;;11.14;100.00
68871;BME280;55906;52.278;6.808;2023-03-13T04:59:29;99559.38;;;11.25;100.00
68871;BME280;55906;52.278;6.808;2023-03-13T05:01:56;99550.59;;;11.23;100.00
68871;BME280;55906;52.278;6.808;2023-03-13T05:04:22;99555.00;;;11.26;100.00
68871;BME280;55906;52.278;6.808;2023-03-13T05:06:49;99556.75;;;11.27;100.00
68871;BME280;55906;52.278;6.808;2023-03-13T05:09:15;99553.25;;;11.32;100.00
68871;BME280;55906;52.278;6.808;2023-03-13T05:11:42;99550.63;;;11.32;100.00
68871;BME280;55906;52.278;6.808;2023-03-13T05:14:08;99554.13;;;11.36;100.00
68871;BME280;55906;52.278;6.808;2023-03-13T05:16:37;99550.63;;;11.37;100.00
68871;BME280;55906;52.278;6.808;2023-03-13T05:19:03;99532.19;;;11.41;100.00
68871;BME280;55906;52.278;6.808;2023-03-13T05:21:30;99534.81;;;11.44;100.00
68871;BME280;55906;52.278;6.808;2023-03-13T05:23:57;99524.31;;;11.49;100.00
68871;BME280;55906;52.278;6.808;2023-03-13T05:26:23;99533.06;;;11.49;100.00
68871;BME280;55906;52.278;6.808;2023-03-13T05:28:50;99519.91;;;11.52;100.00
68871;BME280;55906;52.278;6.808;2023-03-13T05:31:16;99515.53;;;11.56;100.00
68871;BME280;55906;52.278;6.808;2023-03-13T05:33:44;99526.06;;;11.61;100.00
68871;BME280;55906;52.278;6.808;2023-03-13T05:36:11;99514.63;;;11.65;100.00
68871;BME280;55906;52.278;6.808;2023-03-13T05:38:38;99506.72;;;11.65;100.00
68871;BME280;55906;52.278;6.808;2023-03-13T05:41:04;99501.47;;;11.69;100.00
68871;BME280;55906;52.278;6.808;2023-03-13T05:43:31;99490.06;;;11.73;100.00
68871;BME280;55906;52.278;6.808;2023-03-13T05:45:58;99509.41;;;11.71;100.00
68871;BME280;55906;52.278;6.808;2023-03-13T05:48:24;99495.34;;;11.75;100.00
68871;BME280;55906;52.278;6.808;2023-03-13T05:50:52;99490.97;;;11.80;100.00
68871;BME280;55906;52.278;6.808;2023-03-13T05:53:19;99504.16;;;11.83;100.00
68871;BME280;55906;52.278;6.808;2023-03-13T05:55:45;99511.16;;;11.87;100.00
68871;BME280;55906;52.278;6.808;2023-03-13T05:58:12;99503.25;;;11.87;100.00
68871;BME280;55906;52.278;6.808;2023-03-13T06:00:39;99504.13;;;11.92;100.00
68871;BME280;55906;52.278;6.808;2023-03-13T06:03:05;99506.75;;;12.01;100.00
68871;BME280;55906;52.278;6.808;2023-03-13T06:05:32;99509.38;;;12.03;100.00
68871;BME280;55906;52.278;6.808;2023-03-13T06:08:00;99509.38;;;12.04;100.00
68871;BME280;55906;52.278;6.808;2023-03-13T06:10:27;99513.75;;;12.10;100.00
68871;BME280;55906;52.278;6.808;2023-03-13T06:12:55;99511.13;;;12.08;100.00
68871;BME280;55906;52.278;6.808;2023-03-13T06:15:22;99506.72;;;12.10;100.00
68871;BME280;55906;52.278;6.808;2023-03-13T06:17:49;99512.84;;;12.18;100.00
68871;BME280;55906;52.278;6.808;2023-03-13T06:20:16;99506.69;;;12.24;100.00
68871;BME280;55906;52.278;6.808;2023-03-13T06:22:42;99506.69;;;12.23;100.00
68871;BME280;55906;52.278;6.808;2023-03-13T06:25:10;99514.59;;;12.26;100.00
68871;BME280;55906;52.278;6.808;2023-03-13T06:27:37;99518.09;;;12.26;100.00
68871;BME280;55906;52.278;6.808;2023-03-13T06:30:04;99513.72;;;12.24;100.00
68871;BME280;55906;52.278;6.808;2023-03-13T06:32:31;99511.97;;;12.20;100.00
68871;BME280;55906;52.278;6.808;2023-03-13T06:35:08;99485.59;;;12.24;100.00
68871;BME280;55906;52.278;6.808;2023-03-13T06:37:35;99501.44;;;12.16;100.00
68871;BME280;55906;52.278;6.808;2023-03-13T06:40:05;99511.97;;;12.21;100.00
68871;BME280;55906;52.278;6.808;2023-03-13T06:42:34;99509.31;;;12.26;100.00
68871;BME280;55906;52.278;6.808;2023-03-13T06:45:02;99499.66;;;12.20;100.00
68871;BME280;55906;52.278;6.808;2023-03-13T06:47:30;99508.44;;;12.30;100.00
68871;BME280;55906;52.278;6.808;2023-03-13T06:49:56;99518.09;;;12.28;100.00
68871;BME280;55906;52.278;6.808;2023-03-13T06:52:23;99497.03;;;12.25;100.00
68871;BME280;55906;52.278;6.808;2023-03-13T06:54:56;99504.03;;;12.33;99.94
68871;BME280;55906;52.278;6.808;2023-03-13T06:57:23;99504.88;;;12.40;99.57
68871;BME280;55906;52.278;6.808;2023-03-13T06:59:51;99499.56;;;12.52;98.63
68871;BME280;55906;52.278;6.808;2023-03-13T07:02:18;99482.84;;;12.50;98.52
68871;BME280;55906;52.278;6.808;2023-03-13T07:04:45;99474.03;;;12.53;98.04
68871;BME280;55906;52.278;6.808;2023-03-13T07:07:12;99477.59;;;12.48;98.37
68871;BME280;55906;52.278;6.808;2023-03-13T07:09:38;99466.13;;;12.51;98.51
68871;BME280;55906;52.278;6.808;2023-03-13T07:12:06;99474.03;;;12.54;97.95
68871;BME280;55906;52.278;6.808;2023-03-13T07:14:32;99465.22;;;12.57;97.75
68871;BME280;55906;52.278;6.808;2023-03-13T07:17:00;99463.47;;;12.59;97.41
68871;BME280;55906;52.278;6.808;2023-03-13T07:19:27;99468.72;;;12.60;97.18
68871;BME280;55906;52.278;6.808;2023-03-13T07:21:54;99477.50;;;12.62;96.30
68871;BME280;55906;52.278;6.808;2023-03-13T07:24:21;99466.06;;;12.63;96.30
68871;BME280;55906;52.278;6.808;2023-03-13T07:26:48;99458.16;;;12.63;96.38
68871;BME280;55906;52.278;6.808;2023-03-13T07:29:14;99480.13;;;12.68;95.54
68871;BME280;55906;52.278;6.808;2023-03-13T07:31:41;99469.50;;;12.80;94.16
68871;BME280;55906;52.278;6.808;2023-03-13T07:34:09;99473.84;;;12.89;93.43
68871;BME280;55906;52.278;6.808;2023-03-13T07:36:36;99475.59;;;12.89;93.04
68871;BME280;55906;52.278;6.808;2023-03-13T07:39:06;99469.47;;;12.85;92.84
68871;BME280;55906;52.278;6.808;2023-03-13T07:41:33;99472.97;;;12.90;93.09
68871;BME280;55906;52.278;6.808;2023-03-13T07:43:59;99464.09;;;12.99;91.47
68871;BME280;55906;52.278;6.808;2023-03-13T07:46:26;99470.28;;;13.01;91.21
68871;BME280;55906;52.278;6.808;2023-03-13T07:48:53;99472.00;;;13.05;90.88
68871;BME280;55906;52.278;6.808;2023-03-13T07:51:22;99473.75;;;13.07;90.47
68871;BME280;55906;52.278;6.808;2023-03-13T07:53:49;99457.88;;;13.13;90.16
68871;BME280;55906;52.278;6.808;2023-03-13T07:56:18;99470.19;;;13.19;89.69
68871;BME280;55906;52.278;6.808;2023-03-13T07:58:45;99450.84;;;13.17;89.97
68871;BME280;55906;52.278;6.808;2023-03-13T08:01:13;99459.59;;;13.21;89.55
68871;BME280;55906;52.278;6.808;2023-03-13T08:03:41;99465.75;;;13.23;89.56
68871;BME280;55906;52.278;6.808;2023-03-13T08:06:11;99460.44;;;13.27;88.76
68871;BME280;55906;52.278;6.808;2023-03-13T08:08:39;99470.13;;;13.28;88.78
68871;BME280;55906;52.278;6.808;2023-03-13T08:11:08;99472.72;;;13.31;88.45
68871;BME280;55906;52.278;6.808;2023-03-13T08:13:36;99465.63;;;13.39;87.75
68871;BME280;55906;52.278;6.808;2023-03-13T08:16:05;99445.34;;;13.41;87.73
68871;BME280;55906;52.278;6.808;2023-03-13T08:18:32;99462.03;;;13.47;87.24
68871;BME280;55906;52.278;6.808;2023-03-13T08:21:01;99420.63;;;13.49;87.33
68871;BME280;55906;52.278;6.808;2023-03-13T08:23:28;99454.91;;;13.56;86.46
68871;BME280;55906;52.278;6.808;2023-03-13T08:26:00;99450.44;;;13.63;85.66
68871;BME280;55906;52.278;6.808;2023-03-13T08:28:27;99474.25;;;13.60;85.76
68871;BME280;55906;52.278;6.808;2023-03-13T08:30:54;99471.53;;;13.69;85.20
68871;BME280;55906;52.278;6.808;2023-03-13T08:33:20;99484.75;;;13.66;85.35
68871;BME280;55906;52.278;6.808;2023-03-13T08:35:47;99465.34;;;13.68;85.40
68871;BME280;55906;52.278;6.808;2023-03-13T08:38:13;99471.50;;;13.72;85.03
68871;BME280;55906;52.278;6.808;2023-03-13T08:40:40;99484.69;;;13.73;85.01
68871;BME280;55906;52.278;6.808;2023-03-13T08:43:08;99471.44;;;13.78;85.11
68871;BME280;55906;52.278;6.808;2023-03-13T08:45:35;99474.06;;;13.80;84.78
68871;BME280;55906;52.278;6.808;2023-03-13T08:48:01;99483.75;;;13.81;85.16
68871;BME280;55906;52.278;6.808;2023-03-13T08:50:28;99485.50;;;13.80;86.27
68871;BME280;55906;52.278;6.808;2023-03-13T08:52:54;99457.34;;;13.76;87.23
68871;BME280;55906;52.278;6.808;2023-03-13T08:55:21;99460.00;;;13.74;87.20
68871;BME280;55906;52.278;6.808;2023-03-13T08:57:48;99469.69;;;13.77;86.24
68871;BME280;55906;52.278;6.808;2023-03-13T09:00:16;99459.97;;;13.79;86.45
68871;BME280;55906;52.278;6.808;2023-03-13T09:02:43;99463.50;;;13.78;86.48
68871;BME280;55906;52.278;6.808;2023-03-13T09:05:10;99469.69;;;13.77;86.76
68871;BME280;55906;52.278;6.808;2023-03-13T09:07:36;99443.16;;;13.86;86.42
68871;BME280;55906;52.278;6.808;2023-03-13T09:10:04;99458.00;;;13.98;85.56
68871;BME280;55906;52.278;6.808;2023-03-13T09:12:30;99452.50;;;14.18;84.45
68871;BME280;55906;52.278;6.808;2023-03-13T09:14:57;99448.84;;;14.28;83.20
68871;BME280;55906;52.278;6.808;2023-03-13T09:17:25;99455.84;;;14.33;82.26
68871;BME280;55906;52.278;6.808;2023-03-13T09:19:51;99429.41;;;14.33;82.45
68871;BME280;55906;52.278;6.808;2023-03-13T09:22:18;99432.88;;;14.38;81.66
68871;BME280;55906;52.278;6.808;2023-03-13T09:24:45;99441.69;;;14.39;81.19
68871;BME280;55906;52.278;6.808;2023-03-13T09:27:11;99479.53;;;14.47;80.89
68871;BME280;55906;52.278;6.808;2023-03-13T09:29:40;99462.72;;;14.51;79.50
68871;BME280;55906;52.278;6.808;2023-03-13T09:32:08;99435.31;;;14.55;79.97
68871;BME280;55906;52.278;6.808;2023-03-13T09:34:36;99471.56;;;14.50;80.41
68871;BME280;55906;52.278;6.808;2023-03-13T09:37:03;99460.03;;;14.54;79.86
68871;BME280;55906;52.278;6.808;2023-03-13T09:39:30;99452.91;;;14.59;79.33
68871;BME280;55906;52.278;6.808;2023-03-13T09:42:02;99436.94;;;14.65;78.25
68871;BME280;55906;52.278;6.808;2023-03-13T09:44:38;99429.56;;;14.87;77.54
68871;BME280;55906;52.278;6.808;2023-03-13T09:47:09;99455.84;;;15.01;75.23
68871;BME280;55906;52.278;6.808;2023-03-13T09:49:41;99461.84;;;15.12;75.21
68871;BME280;55906;52.278;6.808;2023-03-13T09:52:15;99415.75;;;15.22;74.60
68871;BME280;55906;52.278;6.808;2023-03-13T09:54:45;99421.00;;;15.25;73.21
68871;BME280;55906;52.278;6.808;2023-03-13T09:57:17;99415.72;;;15.25;73.16
68871;BME280;55906;52.278;6.808;2023-03-13T09:59:50;99424.56;;;15.24;72.63
68871;BME280;55906;52.278;6.808;2023-03-13T10:02:24;99427.16;;;15.27;72.26
68871;BME280;55906;52.278;6.808;2023-03-13T10:04:59;99413.69;;;15.41;72.17
68871;BME280;55906;52.278;6.808;2023-03-13T10:07:27;99415.41;;;15.44;70.94
68871;BME280;55906;52.278;6.808;2023-03-13T10:09:54;99432.22;;;15.43;70.06
68871;BME280;55906;52.278;6.808;2023-03-13T10:12:23;99390.72;;;15.40;70.08
68871;BME280;55906;52.278;6.808;2023-03-13T10:15:02;99411.84;;;15.45;68.64
68871;BME280;55906;52.278;6.808;2023-03-13T10:17:33;99389.22;;;15.78;67.21
68871;BME280;55906;52.278;6.808;2023-03-13T10:20:19;99374.03;;;15.86;66.34
68871;BME280;55906;52.278;6.808;2023-03-13T10:22:49;99383.88;;;15.79;66.24
68871;BME280;55906;52.278;6.808;2023-03-13T10:25:26;99397.13;;;15.79;66.40
68871;BME280;55906;52.278;6.808;2023-03-13T10:27:54;99389.34;;;15.70;66.43
68871;BME280;55906;52.278;6.808;2023-03-13T10:30:23;99390.16;;;15.75;66.44
68871;BME280;55906;52.278;6.808;2023-03-13T10:32:53;99379.56;;;15.74;66.94
68871;BME280;55906;52.278;6.808;2023-03-13T10:35:23;99407.00;;;15.73;66.89
68871;BME280;55906;52.278;6.808;2023-03-13T10:38:00;99390.25;;;15.69;66.62
68871;BME280;55906;52.278;6.808;2023-03-13T10:40:27;99388.38;;;15.76;66.56
68871;BME280;55906;52.278;6.808;2023-03-13T10:43:01;99385.59;;;15.82;66.72
68871;BME280;55906;52.278;6.808;2023-03-13T10:45:31;99380.25;;;15.83;66.55
68871;BME280;55906;52.278;6.808;2023-03-13T10:48:01;99360.72;;;15.87;66.95
68871;BME280;55906;52.278;6.808;2023-03-13T10:50:33;99366.75;;;15.95;67.05
68871;BME280;55906;52.278;6.808;2023-03-13T10:53:09;99377.47;;;15.91;66.66
68871;BME280;55906;52.278;6.808;2023-03-13T10:55:45;99351.66;;;15.99;66.04
68871;BME280;55906;52.278;6.808;2023-03-13T10:58:17;99353.34;;;16.03;66.08
68871;BME280;55906;52.278;6.808;2023-03-13T11:00:46;99345.41;;;16.02;66.20
68871;BME280;55906;52.278;6.808;2023-03-13T11:03:15;99351.16;;;16.22;66.29
68871;BME280;55906;52.278;6.808;2023-03-13T11:05:53;99350.19;;;16.26;65.82
68871;BME280;55906;52.278;6.808;2023-03-13T11:08:22;99340.03;;;16.45;64.85
68871;BME280;55906;52.278;6.808;2023-03-13T11:10:51;99339.56;;;16.66;63.78
68871;BME280;55906;52.278;6.808;2023-03-13T11:13:28;99337.50;;;16.79;63.08
68871;BME280;55906;52.278;6.808;2023-03-13T11:15:57;99316.25;;;16.79;62.02
68871;BME280;55906;52.278;6.808;2023-03-13T11:18:34;99328.38;;;16.89;61.74
68871;BME280;55906;52.278;6.808;2023-03-13T11:21:05;99338.59;;;17.07;60.99
68871;BME280;55906;52.278;6.808;2023-03-13T11:23:37;99321.63;;;17.45;61.09
68871;BME280;55906;52.278;6.808;2023-03-13T11:26:10;99351.84;;;17.43;60.35
68871;BME280;55906;52.278;6.808;2023-03-13T11:28:49;99320.72;;;17.46;60.12
68871;BME280;55906;52.278;6.808;2023-03-13T11:31:21;99325.94;;;17.49;59.97
68871;BME280;55906;52.278;6.808;2023-03-13T11:33:54;99349.47;;;17.65;59.16
68871;BME280;55906;52.278;6.808;2023-03-13T11:36:32;99302.63;;;17.59;58.38
68871;BME280;55906;52.278;6.808;2023-03-13T11:39:14;99322.91;;;17.63;56.98
68871;BME280;55906;52.278;6.808;2023-03-13T11:41:54;99346.81;;;17.66;56.51
68871;BME280;55906;52.278;6.808;2023-03-13T11:44:40;99339.44;;;17.76;56.19
68871;BME280;55906;52.278;6.808;2023-03-13T11:47:26;99354.75;;;17.99;55.36
68871;BME280;55906;52.278;6.808;2023-03-13T11:50:06;99312.38;;;18.22;55.03
68871;BME280;55906;52.278;6.808;2023-03-13T11:52:57;99306.34;;;18.15;55.63
68871;BME280;55906;52.278;6.808;2023-03-13T11:55:39;99272.41;;;18.51;54.67
68871;BME280;55906;52.278;6.808;2023-03-13T11:58:23;99289.69;;;18.38;54.16
68871;BME280;55906;52.278;6.808;2023-03-13T12:00:57;99268.25;;;18.71;53.49
68871;BME280;55906;52.278;6.808;2023-03-13T12:03:31;99252.38;;;18.68;52.24
68871;BME280;55906;52.278;6.808;2023-03-13T12:06:01;99270.13;;;18.94;52.28
68871;BME280;55906;52.278;6.808;2023-03-13T12:08:34;99253.72;;;19.06;52.27
68871;BME280;55906;52.278;6.808;2023-03-13T12:11:08;99257.72;;;18.93;52.56
68871;BME280;55906;52.278;6.808;2023-03-13T12:13:40;99255.13;;;18.91;53.08
68871;BME280;55906;52.278;6.808;2023-03-13T12:16:11;99231.47;;;19.32;52.53
68871;BME280;55906;52.278;6.808;2023-03-13T12:18:40;99257.09;;;19.36;52.19
68871;BME280;55906;52.278;6.808;2023-03-13T12:21:13;99254.41;;;19.62;51.49
68871;BME280;55906;52.278;6.808;2023-03-13T12:23:49;99225.53;;;19.73;50.74
68871;BME280;55906;52.278;6.808;2023-03-13T12:26:19;99220.34;;;19.44;51.52
68871;BME280;55906;52.278;6.808;2023-03-13T12:28:53;99229.44;;;19.38;51.82
68871;BME280;55906;52.278;6.808;2023-03-13T12:31:26;99225.16;;;19.09;52.59
68871;BME280;55906;52.278;6.808;2023-03-13T12:33:58;99242.03;;;19.10;52.80
68871;BME280;55906;52.278;6.808;2023-03-13T12:36:30;99250.59;;;18.93;53.18
68871;BME280;55906;52.278;6.808;2023-03-13T12:39:10;99216.56;;;19.01;53.47
68871;BME280;55906;52.278;6.808;2023-03-13T12:41:42;99210.75;;;18.90;54.02
68871;BME280;55906;52.278;6.808;2023-03-13T12:44:13;99212.91;;;18.79;53.59
68871;BME280;55906;52.278;6.808;2023-03-13T12:46:45;99199.84;;;18.71;53.50
68871;BME280;55906;52.278;6.808;2023-03-13T12:49:27;99213.28;;;18.68;52.36
68871;BME280;55906;52.278;6.808;2023-03-13T12:52:14;99198.56;;;18.83;52.11
68871;BME280;55906;52.278;6.808;2023-03-13T12:54:55;99201.53;;;18.74;51.33
68871;BME280;55906;52.278;6.808;2023-03-13T12:58:00;99202.56;;;18.70;51.32
68871;BME280;55906;52.278;6.808;2023-03-13T13:00:34;99214.81;;;19.25;50.18
68871;BME280;55906;52.278;6.808;2023-03-13T13:03:09;99156.44;;;19.17;49.26
68871;BME280;55906;52.278;6.808;2023-03-13T13:05:57;99178.97;;;19.09;49.08
68871;BME280;55906;52.278;6.808;2023-03-13T13:08:25;99183.53;;;19.05;49.58